Aeroporto :
LOGIN :

Iscrizione | Disclaimer

   EN    FR    IT 

 










Sommario :    VFR   VFR Marginale   IFR   IFR Intensivo   IFR Molto Intensivo
Visibilità : 
Base nubi : 
>= 8 km
>= 3000ft
5 / 8 km
1000 / 3000 ft
1500m / 5 km
500 / 1000 ft
800 / 1500m
200 / 500 ft
< 800m
< 200 ft
Simboli :   Temporali  Nebbia  Neve Forte  Precipitazioni Forti  Vento > 20 kt
SIGMETs :   Varie  Temporali  Ghiacco  Turbolenza  Onda orograficha  Ceneri Vulcaniche







- Altitudine del aeroporto : 83 ft
- Codice IATA : LHR
- Carte del aeroporto


EGLL - London Heathrow

ULTIMO METAR :
  • 202050Z AUTO 07005KT 4000 RA FEW007 BKN012 OVC027 03/02 Q1006 TEMPO BKN007

METARs OBSOLETI :
  • 202020Z AUTO 07003KT 4200 -RADZ FEW009 SCT014 BKN019 03/02 Q1006 TEMPO RADZ
  • 201950Z 11006KT 5000 -RADZ BKN008 BKN019 OVC024 03/02 Q1006 TEMPO 2500 RADZ
  • 201920Z 09004KT 5000 -RADZ BKN008 OVC016 03/03 Q1006 TEMPO BKN012
  • 201850Z 10002KT 8000 -RA SCT011 BKN016 OVC023 03/02 Q1006
  • 201820Z 10003KT 7000 -RA BKN010 BKN017 OVC026 03/02 Q1006

TAF AMD TAF EGLL
Valido dal 20 a 21 ore il 22 a 00 ore UTC


202104Z 2021/2124 05012KT 9999 SCT025
TEMPO 2021/2024 6000 -RA BKN011
PROB30
TEMPO 2021/2124 3000 RASN BKN007
TEMPO 2100/2110 BKN010
PROB40
TEMPO 2100/2108 6000 BKN005
Nessun NOTAM noto per questo aeroporto.
2 SIGMETs conosciuti per la FIR London (EGTT) :
 
Forte onda orograficha
EGTT SIGMET 04 VALID 202100/210100 EGRR
EGTT LONDON FIR SEV MTW FCST WI N5355 W00132 - N5232 W00304 - N5221 W00530 - N5500 W00530 - N5500 W00159 - N5355 W00132 FL030/120 MOV N 05KT NC=
Forte onda orograficha
EGTT SIGMET 03 VALID 201700/202100 EGRR
EGTT LONDON FIR SEV MTW FCST WI N5500 W00220 - N5322 W00134 - N5158 W00304 - N5149 W00510 - N5500 W00447 - N5500 W00220 FL030/120 MOV N 10KT NC=



MetMap, La meteo Aeronautica in un colpo d'occhio ! - Copyright ORBIFLY Dicembre 2007 - Disclaimer

ORBIFLY MET'MAP TEAM :

Programmazione e sviluppo : Alexandra Zaïnal
Concezione e sviluppo : Baudouin d'Aumeries
Co-Programmazione e sviluppo : Marc-Olivier Méhu
Supporto tecnico e logistico : Manuel Goepfert
Aiuto per la traduzione : Arnaldo La Scala

Contatto : metmap@orbifly.com




FONTI E CREDITI :

   NOAA